Time;durP1;ratioP1;P1;durP2;ratioP2;P2;SDS_P1;SDS_P2;PMS_P1;PMS_P2;Temp;Humidity;BMP_temperature;BMP_pressure;BME280_temperature;BME280_humidity;BME280_pressure;Samples;Min_cycle;Max_cycle;Signal;HPM_P1;HPM_P2
2024/04/10 00:01:48;;;;;;;6.07;5.30;;;;;;;;;;5448948;26;20338;-75
2024/04/10 00:04:17;;;;;;;5.67;5.20;;;;;;;;;;5453129;26;20571;-76
2024/04/10 00:06:43;;;;;;;8.10;5.50;;;;;;;;;;5465240;26;20614;-76
2024/04/10 00:09:11;;;;;;;7.90;5.77;;;;;;;;;;5457522;26;20480;-76
2024/04/10 00:11:36;;;;;;;7.47;4.90;;;;;;;;;;5459084;26;21401;-76
2024/04/10 00:14:04;;;;;;;6.33;5.07;;;;;;;;;;5453442;26;20481;-74
2024/04/10 00:16:30;;;;;;;6.27;5.77;;;;;;;;;;5450394;26;20831;-76
2024/04/10 00:19:01;;;;;;;6.40;5.50;;;;;;;;;;5454596;26;20467;-74
2024/04/10 00:21:30;;;;;;;7.63;4.87;;;;;;;;;;5440549;26;20234;-75
2024/04/10 00:23:59;;;;;;;9.13;5.17;;;;;;;;;;5458780;26;20520;-75
2024/04/10 00:26:24;;;;;;;7.77;5.00;;;;;;;;;;5449170;26;20518;-75
2024/04/10 00:28:53;;;;;;;8.03;6.37;;;;;;;;;;5464130;26;21308;-76
2024/04/10 00:31:19;;;;;;;7.03;5.67;;;;;;;;;;5464890;26;20234;-75
2024/04/10 00:33:47;;;;;;;11.40;5.20;;;;;;;;;;5452396;26;20462;-74
2024/04/10 00:36:15;;;;;;;6.40;5.67;;;;;;;;;;5451236;26;20460;-76
2024/04/10 00:38:43;;;;;;;11.50;4.90;;;;;;;;;;5471103;26;20873;-77
2024/04/10 00:41:09;;;;;;;5.73;4.77;;;;;;;;;;5446769;26;20540;-78
2024/04/10 00:43:37;;;;;;;8.80;5.20;;;;;;;;;;5472610;26;20472;-77
2024/04/10 00:46:08;;;;;;;6.10;5.20;;;;;;;;;;5451480;26;20273;-77
2024/04/10 00:48:37;;;;;;;6.80;5.37;;;;;;;;;;5452130;26;20508;-76
2024/04/10 00:51:03;;;;;;;6.50;5.43;;;;;;;;;;5450526;26;20567;-76
2024/04/10 00:53:34;;;;;;;7.90;5.20;;;;;;;;;;5452921;26;20469;-76
2024/04/10 00:55:59;;;;;;;7.70;6.70;;;;;;;;;;5451970;26;20463;-76
2024/04/10 00:58:28;;;;;;;5.77;4.40;;;;;;;;;;5450880;26;20523;-77
2024/04/10 01:00:53;;;;;;;7.77;4.37;;;;;;;;;;5459597;26;20231;-76
2024/04/10 01:03:22;;;;;;;10.80;4.40;;;;;;;;;;5450957;26;21015;-77
2024/04/10 01:05:55;;;;;;;8.87;3.73;;;;;;;;;;5456785;26;20258;-77
2024/04/10 01:08:23;;;;;;;8.00;4.70;;;;;;;;;;5453187;26;20468;-74
2024/04/10 01:10:51;;;;;;;7.77;5.47;;;;;;;;;;5460296;26;20562;-75
2024/04/10 01:13:19;;;;;;;6.90;5.33;;;;;;;;;;5463008;26;21078;-75
2024/04/10 01:15:45;;;;;;;12.10;5.63;;;;;;;;;;5464361;26;20911;-76
2024/04/10 01:18:13;;;;;;;10.93;6.17;;;;;;;;;;5459081;26;20530;-76
2024/04/10 01:20:39;;;;;;;11.10;5.83;;;;;;;;;;5458195;26;20238;-76
2024/04/10 01:23:10;;;;;;;10.20;5.93;;;;;;;;;;5456552;26;20466;-76
2024/04/10 01:25:35;;;;;;;11.90;5.60;;;;;;;;;;5457700;26;20234;-76
2024/04/10 01:28:03;;;;;;;6.33;5.57;;;;;;;;;;5460772;26;20527;-74
2024/04/10 01:30:29;;;;;;;6.60;4.80;;;;;;;;;;5459169;26;20226;-77
2024/04/10 01:32:57;;;;;;;6.60;4.90;;;;;;;;;;5460423;26;20518;-76
2024/04/10 01:35:23;;;;;;;9.73;6.10;;;;;;;;;;5448604;26;20240;-77
2024/04/10 01:37:51;;;;;;;9.53;6.13;;;;;;;;;;5463884;26;20466;-76
2024/04/10 01:40:21;;;;;;;10.03;5.63;;;;;;;;;;5445863;26;20231;-75
2024/04/10 01:42:49;;;;;;;8.97;5.23;;;;;;;;;;5440927;26;20475;-76
2024/04/10 01:45:15;;;;;;;11.53;5.80;;;;;;;;;;5455623;26;20596;-77
2024/04/10 01:47:43;;;;;;;7.97;5.30;;;;;;;;;;5460635;26;20512;-73
2024/04/10 01:50:09;;;;;;;8.43;5.77;;;;;;;;;;5447926;26;20434;-74
2024/04/10 01:52:37;;;;;;;8.53;5.20;;;;;;;;;;5460548;26;20527;-76
2024/04/10 01:55:03;;;;;;;11.60;7.63;;;;;;;;;;5473261;26;20282;-75
2024/04/10 01:57:34;;;;;;;12.53;5.50;;;;;;;;;;5455222;26;20572;-76
2024/04/10 01:59:59;;;;;;;8.07;5.30;;;;;;;;;;5452772;26;20231;-77
2024/04/10 02:02:27;;;;;;;10.67;5.43;;;;;;;;;;5470437;26;20975;-75
2024/04/10 02:04:53;;;;;;;9.93;4.67;;;;;;;;;;5442949;26;20231;-75
2024/04/10 02:07:21;;;;;;;12.37;5.57;;;;;;;;;;5461718;26;20455;-74
2024/04/10 02:09:47;;;;;;;13.33;4.77;;;;;;;;;;5449912;26;20310;-74
2024/04/10 02:12:15;;;;;;;11.47;5.30;;;;;;;;;;5432062;26;20467;-76
2024/04/10 02:14:43;;;;;;;9.77;6.23;;;;;;;;;;5455830;26;20256;-76
2024/04/10 02:17:11;;;;;;;11.23;5.93;;;;;;;;;;5449567;26;21476;-76
2024/04/10 02:19:37;;;;;;;14.70;5.40;;;;;;;;;;5456619;26;20460;-76
2024/04/10 02:22:06;;;;;;;9.50;6.30;;;;;;;;;;5441948;26;20460;-76
2024/04/10 02:24:31;;;;;;;11.40;5.93;;;;;;;;;;5462138;26;20251;-76
2024/04/10 02:27:00;;;;;;;10.47;5.40;;;;;;;;;;5430658;26;20853;-76
2024/04/10 02:29:28;;;;;;;10.33;5.47;;;;;;;;;;5451345;26;20268;-75
2024/04/10 02:31:59;;;;;;;6.77;5.60;;;;;;;;;;5448397;26;20521;-75
2024/04/10 02:34:25;;;;;;;16.40;5.70;;;;;;;;;;5461263;26;21005;-76
2024/04/10 02:36:53;;;;;;;12.07;6.03;;;;;;;;;;5459878;26;20479;-75
2024/04/10 02:39:19;;;;;;;10.50;4.87;;;;;;;;;;5461821;26;20264;-74
2024/04/10 02:41:48;;;;;;;11.87;5.70;;;;;;;;;;5461541;26;20472;-76
2024/04/10 02:44:13;;;;;;;13.90;5.30;;;;;;;;;;5462074;26;20239;-76
2024/04/10 02:46:42;;;;;;;10.77;5.37;;;;;;;;;;5462094;26;20510;-76
2024/04/10 02:49:10;;;;;;;10.07;5.30;;;;;;;;;;5459062;26;20234;-76
2024/04/10 02:51:38;;;;;;;10.10;5.40;;;;;;;;;;5456346;26;20465;-76
2024/04/10 02:54:03;;;;;;;9.80;6.43;;;;;;;;;;5468875;26;20806;-76
2024/04/10 02:56:32;;;;;;;14.50;5.00;;;;;;;;;;5455727;26;20469;-77
2024/04/10 02:58:57;;;;;;;14.77;5.50;;;;;;;;;;5461071;26;20227;-77
2024/04/10 03:01:25;;;;;;;6.53;4.77;;;;;;;;;;5457411;26;20512;-75
2024/04/10 03:03:51;;;;;;;9.33;4.90;;;;;;;;;;5466884;26;20268;-75
2024/04/10 03:06:22;;;;;;;9.73;4.90;;;;;;;;;;5463100;26;20467;-76
2024/04/10 03:08:48;;;;;;;9.17;5.53;;;;;;;;;;5461382;26;20462;-76
2024/04/10 03:11:18;;;;;;;12.20;6.10;;;;;;;;;;5445901;26;20569;-74
2024/04/10 03:13:43;;;;;;;13.53;5.23;;;;;;;;;;5446201;26;20460;-76
2024/04/10 03:16:12;;;;;;;12.53;5.60;;;;;;;;;;5462254;26;20540;-76
2024/04/10 03:18:37;;;;;;;10.60;5.10;;;;;;;;;;5460783;26;20321;-75
2024/04/10 03:21:06;;;;;;;8.73;5.10;;;;;;;;;;5460218;26;20522;-74
2024/04/10 03:23:34;;;;;;;15.70;6.23;;;;;;;;;;5452585;26;20231;-75
2024/04/10 03:26:04;;;;;;;14.87;5.63;;;;;;;;;;5444625;26;20460;-76
2024/04/10 03:28:30;;;;;;;14.53;5.20;;;;;;;;;;5456029;26;20531;-76
2024/04/10 03:30:58;;;;;;;11.97;6.03;;;;;;;;;;5449124;26;21142;-76
2024/04/10 03:33:25;;;;;;;11.00;5.07;;;;;;;;;;5413559;26;20532;-75
2024/04/10 03:35:53;;;;;;;10.83;6.00;;;;;;;;;;5414195;26;20833;-75
2024/04/10 03:38:18;;;;;;;14.00;6.07;;;;;;;;;;5415800;26;20469;-76
2024/04/10 03:40:49;;;;;;;12.10;6.43;;;;;;;;;;5410946;26;20458;-76
2024/04/10 03:43:17;;;;;;;15.40;5.80;;;;;;;;;;5410078;26;20281;-75
2024/04/10 03:45:46;;;;;;;9.50;5.97;;;;;;;;;;5404358;26;20471;-75
2024/04/10 03:48:14;;;;;;;11.87;6.07;;;;;;;;;;5403669;26;20626;-75
2024/04/10 03:50:42;;;;;;;22.23;6.10;;;;;;;;;;5414199;26;20557;-75
2024/04/10 03:53:08;;;;;;;7.00;5.20;;;;;;;;;;5411972;26;20528;-75
2024/04/10 03:55:37;;;;;;;16.43;6.07;;;;;;;;;;5416893;26;20461;-75
2024/04/10 03:58:05;;;;;;;10.03;5.87;;;;;;;;;;5400492;26;20859;-76
2024/04/10 04:00:33;;;;;;;11.80;5.80;;;;;;;;;;5411727;26;20566;-75
2024/04/10 04:02:59;;;;;;;10.17;6.07;;;;;;;;;;5419496;26;20524;-76
2024/04/10 04:05:27;;;;;;;10.07;5.40;;;;;;;;;;5418590;26;20992;-75
2024/04/10 04:07:53;;;;;;;11.60;6.07;;;;;;;;;;5418256;26;21214;-74
2024/04/10 04:10:21;;;;;;;6.83;5.60;;;;;;;;;;5405050;26;20461;-74
2024/04/10 04:12:46;;;;;;;11.10;5.73;;;;;;;;;;5419936;26;20235;-76
2024/04/10 04:15:17;;;;;;;14.00;5.80;;;;;;;;;;5414364;26;21107;-76
2024/04/10 04:17:43;;;;;;;13.23;6.17;;;;;;;;;;5414974;26;20282;-74
2024/04/10 04:20:12;;;;;;;14.13;5.47;;;;;;;;;;5417457;26;20847;-75
2024/04/10 04:22:38;;;;;;;11.80;6.07;;;;;;;;;;5417405;26;20516;-75
2024/04/10 04:25:07;;;;;;;12.00;6.80;;;;;;;;;;5418531;26;20967;-76
2024/04/10 04:27:32;;;;;;;13.30;6.00;;;;;;;;;;5413013;26;20231;-74
2024/04/10 04:30:01;;;;;;;13.67;6.00;;;;;;;;;;5420028;26;20591;-76
2024/04/10 04:32:31;;;;;;;9.87;5.87;;;;;;;;;;5450329;26;20284;-76
2024/04/10 04:34:59;;;;;;;13.20;6.33;;;;;;;;;;5468522;26;20471;-74
2024/04/10 04:37:25;;;;;;;9.13;6.77;;;;;;;;;;5453597;26;20512;-76
2024/04/10 04:39:54;;;;;;;19.80;6.97;;;;;;;;;;5452884;26;20480;-76
2024/04/10 04:42:19;;;;;;;11.73;7.53;;;;;;;;;;5458211;26;20459;-76
2024/04/10 04:44:48;;;;;;;12.90;6.20;;;;;;;;;;5454361;26;20514;-74
2024/04/10 04:47:15;;;;;;;10.67;6.17;;;;;;;;;;5446946;26;20238;-76
2024/04/10 04:49:46;;;;;;;16.87;5.37;;;;;;;;;;5451781;26;20571;-75
2024/04/10 04:52:11;;;;;;;12.77;5.90;;;;;;;;;;5454131;26;20510;-75
2024/04/10 04:54:39;;;;;;;11.53;6.00;;;;;;;;;;5461688;26;20468;-76
2024/04/10 04:57:09;;;;;;;14.33;5.90;;;;;;;;;;5467886;26;20229;-76
2024/04/10 04:59:37;;;;;;;9.30;5.80;;;;;;;;;;5457487;26;20476;-75
2024/04/10 05:02:02;;;;;;;10.97;6.27;;;;;;;;;;5466373;26;20451;-75
2024/04/10 05:07:17;;;;;;;9.20;5.10;;;;;;;;;;5445452;26;20625;-75
2024/04/10 05:09:49;;;;;;;9.50;5.20;;;;;;;;;;5451784;26;20464;-75
2024/04/10 05:12:15;;;;;;;11.27;5.90;;;;;;;;;;5453192;26;20583;-71
2024/04/10 05:14:43;;;;;;;14.10;5.57;;;;;;;;;;5453265;26;20452;-71
2024/04/10 05:17:09;;;;;;;12.37;5.80;;;;;;;;;;5453653;26;20230;-76
2024/04/10 05:19:38;;;;;;;19.37;6.30;;;;;;;;;;5462349;26;20460;-76
2024/04/10 05:22:04;;;;;;;16.00;6.27;;;;;;;;;;5459472;26;20326;-76
2024/04/10 05:24:34;;;;;;;22.17;6.77;;;;;;;;;;5450732;26;20519;-76
2024/04/10 05:27:04;;;;;;;10.87;6.47;;;;;;;;;;5468487;26;20968;-74
2024/04/10 05:29:32;;;;;;;16.03;5.53;;;;;;;;;;5454889;26;21206;-76
2024/04/10 05:31:58;;;;;;;9.53;5.90;;;;;;;;;;5461825;26;21277;-77
2024/04/10 05:34:27;;;;;;;10.53;6.70;;;;;;;;;;5462794;26;20524;-75
2024/04/10 05:36:52;;;;;;;15.10;5.90;;;;;;;;;;5467298;26;20280;-76
2024/04/10 05:39:21;;;;;;;14.20;5.90;;;;;;;;;;5457670;26;20460;-76
2024/04/10 05:41:50;;;;;;;10.13;5.97;;;;;;;;;;5473680;26;20242;-76
2024/04/10 05:44:18;;;;;;;9.70;5.70;;;;;;;;;;5470448;26;20539;-76
2024/04/10 05:46:43;;;;;;;9.93;5.93;;;;;;;;;;5438560;26;20992;-76
2024/04/10 05:49:12;;;;;;;19.57;6.63;;;;;;;;;;5451927;26;21341;-77
2024/04/10 05:51:41;;;;;;;11.67;5.40;;;;;;;;;;5457942;26;20234;-77
2024/04/10 05:54:07;;;;;;;7.97;6.17;;;;;;;;;;5468893;26;20502;-76
2024/04/10 05:56:36;;;;;;;12.13;6.60;;;;;;;;;;5455918;26;20472;-77
2024/04/10 05:59:05;;;;;;;12.23;5.77;;;;;;;;;;5459056;26;20474;-74
2024/04/10 06:01:34;;;;;;;10.17;5.90;;;;;;;;;;5457012;26;21596;-74
2024/04/10 06:04:00;;;;;;;9.93;5.80;;;;;;;;;;5467538;26;20478;-72
2024/04/10 06:06:29;;;;;;;14.30;6.40;;;;;;;;;;5446929;26;20464;-76
2024/04/10 06:08:54;;;;;;;13.10;7.07;;;;;;;;;;5467318;26;20590;-75
2024/04/10 06:11:23;;;;;;;14.20;6.60;;;;;;;;;;5472893;26;20875;-72
2024/04/10 06:13:51;;;;;;;13.83;6.17;;;;;;;;;;5472403;26;20226;-75
2024/04/10 06:16:22;;;;;;;18.10;6.47;;;;;;;;;;5462332;26;20547;-74
2024/04/10 06:18:47;;;;;;;9.30;5.70;;;;;;;;;;5454380;26;20523;-75
2024/04/10 06:21:16;;;;;;;13.20;5.67;;;;;;;;;;5466769;26;20509;-72
2024/04/10 06:23:41;;;;;;;14.23;6.00;;;;;;;;;;5463020;26;20234;-73
2024/04/10 06:26:10;;;;;;;9.10;6.13;;;;;;;;;;5456966;26;20582;-76
2024/04/10 06:28:36;;;;;;;9.73;5.97;;;;;;;;;;5461643;26;20564;-76
2024/04/10 06:31:06;;;;;;;13.07;6.13;;;;;;;;;;5481835;26;20488;-75
2024/04/10 06:33:35;;;;;;;11.90;6.33;;;;;;;;;;5470463;26;20551;-72
2024/04/10 06:36:04;;;;;;;13.27;6.60;;;;;;;;;;5456917;26;20484;-79
2024/04/10 06:38:29;;;;;;;9.30;7.57;;;;;;;;;;5457687;26;20928;-76
2024/04/10 06:40:58;;;;;;;15.33;6.70;;;;;;;;;;5457897;26;21012;-74
2024/04/10 06:43:24;;;;;;;13.93;6.93;;;;;;;;;;5475548;26;20285;-79
2024/04/10 06:45:59;;;;;;;9.80;7.03;;;;;;;;;;5456425;26;20471;-74
2024/04/10 06:48:24;;;;;;;12.23;7.10;;;;;;;;;;5455080;26;20260;-77
2024/04/10 06:50:56;;;;;;;17.93;9.30;;;;;;;;;;5455531;26;20572;-75
2024/04/10 06:53:22;;;;;;;8.03;7.17;;;;;;;;;;5467583;26;20234;-74
2024/04/10 06:55:54;;;;;;;10.83;6.97;;;;;;;;;;5464409;26;20473;-71
2024/04/10 06:58:20;;;;;;;9.20;6.80;;;;;;;;;;5456245;26;20223;-74
2024/04/10 07:00:56;;;;;;;13.13;7.23;;;;;;;;;;5454941;26;20537;-76
2024/04/10 07:03:22;;;;;;;21.03;7.50;;;;;;;;;;5450049;26;20231;-73
2024/04/10 07:05:50;;;;;;;12.70;7.33;;;;;;;;;;5454989;26;20935;-74
2024/04/10 07:08:19;;;;;;;9.60;7.63;;;;;;;;;;5465702;26;20264;-73
2024/04/10 07:10:53;;;;;;;14.63;7.23;;;;;;;;;;5459966;26;20468;-73
2024/04/10 07:13:18;;;;;;;14.53;7.63;;;;;;;;;;5462108;26;20522;-78
2024/04/10 07:15:47;;;;;;;14.77;6.80;;;;;;;;;;5457400;26;20566;-75
2024/04/10 07:18:14;;;;;;;10.80;6.77;;;;;;;;;;5455094;26;20270;-76
2024/04/10 07:20:42;;;;;;;15.23;8.77;;;;;;;;;;5464861;26;21035;-76
2024/04/10 07:23:07;;;;;;;11.10;8.27;;;;;;;;;;5471321;26;20844;-74
2024/04/10 07:25:38;;;;;;;12.80;7.40;;;;;;;;;;5460842;26;20530;-74
2024/04/10 07:28:04;;;;;;;17.23;7.90;;;;;;;;;;5455717;26;20285;-76
2024/04/10 07:30:32;;;;;;;14.07;7.20;;;;;;;;;;5474643;26;20562;-75
2024/04/10 07:32:58;;;;;;;9.20;8.30;;;;;;;;;;5463539;26;21057;-77
2024/04/10 07:35:30;;;;;;;8.30;7.50;;;;;;;;;;5453806;26;20458;-74
2024/04/10 07:37:56;;;;;;;11.53;7.60;;;;;;;;;;5460417;26;20246;-75
2024/04/10 07:40:24;;;;;;;13.73;8.60;;;;;;;;;;5453859;26;20567;-73
2024/04/10 07:42:53;;;;;;;8.47;7.60;;;;;;;;;;5456237;26;20720;-73
2024/04/10 07:45:21;;;;;;;9.60;7.50;;;;;;;;;;5459766;26;20525;-71
2024/04/10 07:47:46;;;;;;;9.67;7.63;;;;;;;;;;5472405;26;20464;-71
2024/04/10 07:50:15;;;;;;;8.77;6.87;;;;;;;;;;5457330;26;20571;-75
2024/04/10 07:52:41;;;;;;;8.43;6.50;;;;;;;;;;5460381;26;20280;-80
2024/04/10 07:55:09;;;;;;;7.87;7.10;;;;;;;;;;5463849;26;20462;-75
2024/04/10 07:57:35;;;;;;;13.67;7.27;;;;;;;;;;5466156;26;20235;-75
2024/04/10 08:00:08;;;;;;;9.90;8.13;;;;;;;;;;5471879;26;20555;-75
2024/04/10 08:02:34;;;;;;;7.93;7.13;;;;;;;;;;5455019;26;20222;-73
2024/04/10 08:05:02;;;;;;;7.83;7.10;;;;;;;;;;5466652;26;20522;-76
2024/04/10 08:07:29;;;;;;;9.03;7.50;;;;;;;;;;5464747;26;20229;-76
2024/04/10 08:09:57;;;;;;;13.63;7.20;;;;;;;;;;5468449;26;20474;-75
2024/04/10 08:12:23;;;;;;;9.17;7.80;;;;;;;;;;5466315;26;20466;-75
2024/04/10 08:14:53;;;;;;;7.90;6.70;;;;;;;;;;5473605;26;20474;-74
2024/04/10 08:17:21;;;;;;;8.10;7.30;;;;;;;;;;5448303;26;20495;-75
2024/04/10 08:19:51;;;;;;;8.07;7.27;;;;;;;;;;5454369;26;20468;-75
2024/04/10 08:22:17;;;;;;;11.43;8.03;;;;;;;;;;5453502;26;20830;-73
2024/04/10 08:24:45;;;;;;;11.07;7.40;;;;;;;;;;5461018;26;20468;-77
2024/04/10 08:27:11;;;;;;;7.53;6.83;;;;;;;;;;5479900;26;20514;-75
2024/04/10 08:29:39;;;;;;;11.00;9.50;;;;;;;;;;5466521;26;20468;-77
2024/04/10 08:32:05;;;;;;;9.50;8.40;;;;;;;;;;5457809;26;20289;-77
2024/04/10 08:34:36;;;;;;;11.30;8.43;;;;;;;;;;5467299;26;21067;-75
2024/04/10 08:37:01;;;;;;;13.43;8.40;;;;;;;;;;5464322;26;20341;-77
2024/04/10 08:39:29;;;;;;;11.80;8.20;;;;;;;;;;5466422;26;20463;-77
2024/04/10 08:41:56;;;;;;;11.60;8.00;;;;;;;;;;5463517;26;20243;-78
2024/04/10 08:44:25;;;;;;;13.00;7.70;;;;;;;;;;5446739;26;20488;-74
2024/04/10 08:46:52;;;;;;;10.63;9.53;;;;;;;;;;5455126;26;20544;-77
2024/04/10 08:49:21;;;;;;;12.17;8.87;;;;;;;;;;5459011;26;20466;-75
2024/04/10 08:51:50;;;;;;;11.83;9.10;;;;;;;;;;5457242;26;20460;-75
2024/04/10 08:54:19;;;;;;;16.60;8.80;;;;;;;;;;5465534;26;20562;-71
2024/04/10 08:56:45;;;;;;;9.07;8.13;;;;;;;;;;5462585;26;20509;-79
2024/04/10 08:59:13;;;;;;;10.17;8.07;;;;;;;;;;5460382;26;20463;-77
2024/04/10 09:01:41;;;;;;;14.90;7.30;;;;;;;;;;5463592;26;20344;-73
2024/04/10 09:04:11;;;;;;;9.27;7.60;;;;;;;;;;5467782;26;20512;-77
2024/04/10 09:06:37;;;;;;;8.57;7.50;;;;;;;;;;5458632;26;20527;-76
2024/04/10 09:09:08;;;;;;;11.53;7.60;;;;;;;;;;5450035;26;20469;-78
2024/04/10 09:11:34;;;;;;;12.83;7.80;;;;;;;;;;5474907;26;20237;-75
2024/04/10 09:14:03;;;;;;;8.90;7.53;;;;;;;;;;5463282;26;20532;-74
2024/04/10 09:16:29;;;;;;;9.03;8.10;;;;;;;;;;5456252;26;20242;-73
2024/04/10 09:18:57;;;;;;;9.03;8.20;;;;;;;;;;5457404;26;20452;-75
2024/04/10 09:21:23;;;;;;;12.10;7.80;;;;;;;;;;5470559;26;20574;-73
2024/04/10 09:24:00;;;;;;;11.87;7.90;;;;;;;;;;5459426;26;20468;-73
2024/04/10 09:26:28;;;;;;;8.10;7.30;;;;;;;;;;5474504;26;20238;-71
2024/04/10 09:29:04;;;;;;;8.23;7.43;;;;;;;;;;5463501;26;20528;-72
2024/04/10 09:31:30;;;;;;;10.07;7.30;;;;;;;;;;5468064;26;20841;-74
2024/04/10 09:33:58;;;;;;;7.33;6.67;;;;;;;;;;5448442;26;20528;-78
2024/04/10 09:36:24;;;;;;;6.97;6.20;;;;;;;;;;5460949;26;20265;-73
2024/04/10 09:38:52;;;;;;;8.20;6.50;;;;;;;;;;5458172;26;20467;-71
2024/04/10 09:41:21;;;;;;;8.43;7.43;;;;;;;;;;5467088;26;20343;-73
2024/04/10 09:43:55;;;;;;;8.57;6.80;;;;;;;;;;5472841;26;20488;-79
2024/04/10 09:46:22;;;;;;;7.40;6.53;;;;;;;;;;5473330;26;20470;-75
2024/04/10 09:48:50;;;;;;;7.53;6.70;;;;;;;;;;5456355;26;20472;-75
2024/04/10 09:51:20;;;;;;;7.60;6.60;;;;;;;;;;5455927;26;20958;-73
2024/04/10 09:53:48;;;;;;;9.00;6.60;;;;;;;;;;5456054;26;20467;-78
2024/04/10 09:56:14;;;;;;;8.00;7.30;;;;;;;;;;5454886;26;20517;-75
2024/04/10 09:58:43;;;;;;;9.00;8.20;;;;;;;;;;5450341;26;20468;-76
2024/04/10 10:01:11;;;;;;;9.00;7.53;;;;;;;;;;5464406;26;20801;-76
2024/04/10 10:03:40;;;;;;;8.93;7.37;;;;;;;;;;5453004;26;20515;-77
2024/04/10 10:06:06;;;;;;;7.83;7.07;;;;;;;;;;5465012;26;20475;-75
2024/04/10 10:08:35;;;;;;;10.33;7.80;;;;;;;;;;5474330;26;20868;-74
2024/04/10 10:11:00;;;;;;;10.07;7.17;;;;;;;;;;5467748;26;20480;-73
2024/04/10 10:13:29;;;;;;;8.87;7.97;;;;;;;;;;5461671;26;20520;-73
2024/04/10 10:15:55;;;;;;;9.87;7.37;;;;;;;;;;5450074;26;20269;-73
2024/04/10 10:18:27;;;;;;;8.40;7.50;;;;;;;;;;5469589;26;20891;-74
2024/04/10 10:21:00;;;;;;;8.60;7.33;;;;;;;;;;5451248;26;20456;-74
2024/04/10 10:23:28;;;;;;;11.50;9.03;;;;;;;;;;5455489;26;20638;-74
2024/04/10 10:25:53;;;;;;;8.80;7.60;;;;;;;;;;5436903;26;20569;-77
2024/04/10 10:28:22;;;;;;;8.87;7.53;;;;;;;;;;5449365;26;20456;-75
2024/04/10 10:30:47;;;;;;;9.90;6.97;;;;;;;;;;5455076;26;20868;-75
2024/04/10 10:33:19;;;;;;;10.20;6.67;;;;;;;;;;5462309;26;20468;-75
2024/04/10 10:35:48;;;;;;;8.80;7.90;;;;;;;;;;5463164;26;20238;-76
2024/04/10 10:38:18;;;;;;;13.60;7.23;;;;;;;;;;5451024;26;20477;-77
2024/04/10 10:40:43;;;;;;;8.73;7.93;;;;;;;;;;5440487;26;20912;-73
2024/04/10 10:43:12;;;;;;;9.27;7.43;;;;;;;;;;5468473;26;20945;-72
2024/04/10 10:45:37;;;;;;;12.13;7.10;;;;;;;;;;5452216;26;20824;-74
2024/04/10 10:48:07;;;;;;;8.70;7.87;;;;;;;;;;5468521;26;20463;-78
2024/04/10 10:50:33;;;;;;;9.40;7.10;;;;;;;;;;5465395;26;20315;-78
2024/04/10 10:53:06;;;;;;;9.70;7.47;;;;;;;;;;5462719;26;20468;-77
2024/04/10 10:55:32;;;;;;;8.30;7.07;;;;;;;;;;5464633;26;20260;-76
2024/04/10 10:58:03;;;;;;;8.97;7.37;;;;;;;;;;5485908;26;20518;-75
2024/04/10 11:00:29;;;;;;;10.80;7.83;;;;;;;;;;5469444;26;20296;-73
2024/04/10 11:02:57;;;;;;;8.50;7.70;;;;;;;;;;5459888;26;20464;-74
2024/04/10 11:05:23;;;;;;;10.93;7.83;;;;;;;;;;5460184;26;20452;-76
2024/04/10 11:07:58;;;;;;;8.13;7.07;;;;;;;;;;5463086;26;20555;-76
2024/04/10 11:10:27;;;;;;;9.80;7.10;;;;;;;;;;5466660;26;20238;-77
2024/04/10 11:12:59;;;;;;;9.33;7.57;;;;;;;;;;5458751;26;20595;-75
2024/04/10 11:15:25;;;;;;;10.70;8.10;;;;;;;;;;5449274;26;20468;-78
2024/04/10 11:18:02;;;;;;;9.27;7.60;;;;;;;;;;5459711;26;20464;-76
2024/04/10 11:20:28;;;;;;;8.93;7.17;;;;;;;;;;5463663;26;20798;-77
2024/04/10 11:23:00;;;;;;;10.33;7.73;;;;;;;;;;5470538;26;20479;-75
2024/04/10 11:25:29;;;;;;;8.27;7.47;;;;;;;;;;5446280;26;20286;-80
2024/04/10 11:27:58;;;;;;;9.40;8.50;;;;;;;;;;5461154;26;20863;-77
2024/04/10 11:30:24;;;;;;;12.20;9.20;;;;;;;;;;5458827;26;20479;-68
2024/04/10 11:32:52;;;;;;;10.17;8.80;;;;;;;;;;5482537;26;20515;-77
2024/04/10 11:35:18;;;;;;;10.20;8.37;;;;;;;;;;5487610;26;20463;-76
2024/04/10 11:37:46;;;;;;;10.03;9.03;;;;;;;;;;5456033;26;20886;-72
2024/04/10 11:40:11;;;;;;;10.07;8.63;;;;;;;;;;5470043;26;21074;-71
2024/04/10 11:42:43;;;;;;;11.33;8.43;;;;;;;;;;5462971;26;20468;-75
2024/04/10 11:45:09;;;;;;;12.20;7.30;;;;;;;;;;5456099;26;20246;-73
2024/04/10 11:47:37;;;;;;;8.30;7.50;;;;;;;;;;5467991;26;20547;-76
2024/04/10 11:50:04;;;;;;;11.33;8.23;;;;;;;;;;5468564;26;20449;-73
2024/04/10 11:52:33;;;;;;;8.77;7.57;;;;;;;;;;5453319;26;20897;-71
2024/04/10 11:54:59;;;;;;;14.07;8.70;;;;;;;;;;5463894;26;21152;-78
2024/04/10 11:57:27;;;;;;;9.07;8.17;;;;;;;;;;5470397;26;20476;-75
2024/04/10 11:59:56;;;;;;;10.00;9.03;;;;;;;;;;5464925;26;20465;-78
2024/04/10 12:02:24;;;;;;;8.87;7.80;;;;;;;;;;5456378;26;21121;-72
2024/04/10 12:04:50;;;;;;;13.03;7.23;;;;;;;;;;5470212;26;20532;-73
2024/04/10 12:07:18;;;;;;;9.17;8.27;;;;;;;;;;5470318;26;20532;-75
2024/04/10 12:09:45;;;;;;;8.57;7.73;;;;;;;;;;5476979;26;20309;-72
2024/04/10 12:12:13;;;;;;;7.70;7.00;;;;;;;;;;5465481;26;20530;-74
2024/04/10 12:14:41;;;;;;;8.87;8.07;;;;;;;;;;5462989;26;20521;-74
2024/04/10 12:17:12;;;;;;;9.30;7.43;;;;;;;;;;5445680;26;20487;-75
2024/04/10 12:19:38;;;;;;;11.10;8.80;;;;;;;;;;5481142;26;20463;-73
2024/04/10 12:22:08;;;;;;;10.20;9.10;;;;;;;;;;5460710;26;20525;-71
2024/04/10 12:24:36;;;;;;;9.47;8.23;;;;;;;;;;5456361;26;20239;-77
2024/04/10 12:27:05;;;;;;;7.87;7.17;;;;;;;;;;5457575;26;20547;-76
2024/04/10 12:29:30;;;;;;;10.20;7.60;;;;;;;;;;5458670;26;20464;-74
2024/04/10 12:31:59;;;;;;;13.07;8.37;;;;;;;;;;5437336;26;20580;-76
2024/04/10 12:34:28;;;;;;;8.30;7.60;;;;;;;;;;5422096;26;20562;-74
2024/04/10 12:39:39;;;;;;;9.47;8.13;;;;;;;;;;5365058;26;20469;-76
2024/04/10 12:42:07;;;;;;;9.33;8.17;;;;;;;;;;5420230;26;20453;-71
2024/04/10 12:44:38;;;;;;;8.43;7.63;;;;;;;;;;5414218;26;20467;-77
2024/04/10 12:47:07;;;;;;;12.93;9.17;;;;;;;;;;5409469;26;20465;-75
2024/04/10 12:49:36;;;;;;;9.80;8.90;;;;;;;;;;5424247;26;21464;-75
2024/04/10 12:52:06;;;;;;;10.67;7.87;;;;;;;;;;5416030;26;20510;-78
2024/04/10 12:54:33;;;;;;;10.13;9.20;;;;;;;;;;5414526;26;20466;-72
2024/04/10 12:57:01;;;;;;;9.27;8.20;;;;;;;;;;5430246;26;20589;-71
2024/04/10 12:59:27;;;;;;;9.20;8.30;;;;;;;;;;5422140;26;20469;-72
2024/04/10 13:01:58;;;;;;;10.50;9.30;;;;;;;;;;5419819;26;20467;-74
2024/04/10 13:04:23;;;;;;;10.07;8.57;;;;;;;;;;5421729;26;20235;-73
2024/04/10 13:06:54;;;;;;;11.03;7.63;;;;;;;;;;5406623;26;20533;-72
2024/04/10 13:09:20;;;;;;;11.50;8.30;;;;;;;;;;5414719;26;20274;-72
2024/04/10 13:11:48;;;;;;;8.00;7.20;;;;;;;;;;5395953;26;20461;-74
2024/04/10 13:14:14;;;;;;;8.17;7.47;;;;;;;;;;5426786;26;20512;-72
2024/04/10 13:16:42;;;;;;;7.97;7.17;;;;;;;;;;5426896;26;20508;-72
2024/04/10 13:19:08;;;;;;;8.70;7.43;;;;;;;;;;5432187;26;20273;-71
2024/04/10 13:21:37;;;;;;;7.20;6.43;;;;;;;;;;5428589;26;20457;-78
2024/04/10 13:24:06;;;;;;;6.90;6.37;;;;;;;;;;5420410;26;20224;-75
2024/04/10 13:26:34;;;;;;;8.20;7.53;;;;;;;;;;5423604;26;20481;-77
2024/04/10 13:29:00;;;;;;;8.70;7.90;;;;;;;;;;5417133;26;20449;-77
2024/04/10 13:31:29;;;;;;;11.50;7.87;;;;;;;;;;5446869;26;20571;-79
2024/04/10 13:33:55;;;;;;;8.60;7.80;;;;;;;;;;5456527;26;20277;-78
2024/04/10 13:36:24;;;;;;;10.53;8.43;;;;;;;;;;5472446;26;20542;-76
2024/04/10 13:38:50;;;;;;;13.77;10.93;;;;;;;;;;5465378;26;20550;-77
2024/04/10 13:41:22;;;;;;;10.60;8.73;;;;;;;;;;5467530;26;20456;-75
2024/04/10 13:43:49;;;;;;;8.57;7.97;;;;;;;;;;5462755;26;20543;-72
2024/04/10 13:46:18;;;;;;;7.47;6.77;;;;;;;;;;5447355;26;20477;-74
2024/04/10 13:48:44;;;;;;;7.67;6.97;;;;;;;;;;5454532;26;20474;-79
2024/04/10 13:51:18;;;;;;;7.23;6.53;;;;;;;;;;5460110;26;20528;-76
2024/04/10 13:53:44;;;;;;;7.40;6.80;;;;;;;;;;5460743;26;20545;-74
2024/04/10 13:56:12;;;;;;;6.57;6.17;;;;;;;;;;5459756;26;20471;-74
2024/04/10 13:58:41;;;;;;;8.63;7.73;;;;;;;;;;5449671;26;20238;-72
2024/04/10 14:01:13;;;;;;;7.67;7.07;;;;;;;;;;5452083;26;21005;-72
2024/04/10 14:03:39;;;;;;;7.73;7.17;;;;;;;;;;5451106;26;20464;-73
2024/04/10 14:06:08;;;;;;;8.83;7.13;;;;;;;;;;5453900;26;20516;-69
2024/04/10 14:08:33;;;;;;;7.60;7.10;;;;;;;;;;5454876;26;20460;-72
2024/04/10 14:11:04;;;;;;;8.90;7.67;;;;;;;;;;5462080;26;20523;-74
2024/04/10 14:13:29;;;;;;;11.13;8.87;;;;;;;;;;5454343;26;20277;-71
2024/04/10 14:16:01;;;;;;;9.17;8.50;;;;;;;;;;5454962;26;20466;-75
2024/04/10 14:18:27;;;;;;;10.97;10.07;;;;;;;;;;5459362;26;20294;-76
2024/04/10 14:21:00;;;;;;;10.10;9.40;;;;;;;;;;5468513;26;20467;-73
2024/04/10 14:23:25;;;;;;;10.37;9.67;;;;;;;;;;5458572;26;20277;-71
2024/04/10 14:25:54;;;;;;;9.70;8.90;;;;;;;;;;5455450;26;20470;-71
2024/04/10 14:28:20;;;;;;;9.47;8.70;;;;;;;;;;5461573;26;20230;-72
2024/04/10 14:30:58;;;;;;;9.43;8.63;;;;;;;;;;5466732;26;20515;-73
2024/04/10 14:33:27;;;;;;;9.40;8.60;;;;;;;;;;5455195;26;20223;-75
2024/04/10 14:35:55;;;;;;;9.83;9.00;;;;;;;;;;5463271;26;20463;-73
2024/04/10 14:38:21;;;;;;;9.87;9.07;;;;;;;;;;5455396;26;20476;-70
2024/04/10 14:40:49;;;;;;;9.53;8.73;;;;;;;;;;5449279;26;20580;-72
2024/04/10 14:43:15;;;;;;;10.90;10.00;;;;;;;;;;5458440;26;20276;-73
2024/04/10 14:45:44;;;;;;;9.70;8.80;;;;;;;;;;5460503;26;20468;-78